Time;durP1;ratioP1;P1;durP2;ratioP2;P2;SDS_P1;SDS_P2;PMS_P1;PMS_P2;Temp;Humidity;BMP_temperature;BMP_pressure;BME280_temperature;BME280_humidity;BME280_pressure;Samples;Min_cycle;Max_cycle;Signal;HPM_P1;HPM_P2
2023/10/21 00:02:23;;;;;;;0.95;0.80;;;11.50;99.90;;;;;;5015441;28;20118;-64
2023/10/21 00:04:55;;;;;;;1.15;0.63;;;11.40;99.90;;;;;;5016704;28;20042;-63
2023/10/21 00:07:27;;;;;;;1.27;0.70;;;11.50;99.90;;;;;;5018493;28;20057;-63
2023/10/21 00:09:59;;;;;;;1.08;0.63;;;11.50;99.90;;;;;;5012692;28;20042;-63
2023/10/21 00:12:31;;;;;;;1.98;0.73;;;11.50;99.90;;;;;;5002061;28;20073;-63
2023/10/21 00:15:07;;;;;;;1.70;0.90;;;11.50;99.90;;;;;;5014682;28;20061;-64
2023/10/21 00:17:39;;;;;;;1.50;0.55;;;11.50;99.90;;;;;;5007146;28;20049;-63
2023/10/21 00:20:12;;;;;;;1.08;0.65;;;11.50;99.90;;;;;;5013643;28;20046;-63
2023/10/21 00:22:39;;;;;;;1.23;0.55;;;11.50;99.90;;;;;;4998473;28;20045;-64
2023/10/21 00:25:06;;;;;;;0.73;0.50;;;11.50;99.90;;;;;;5006143;28;20584;-63
2023/10/21 00:27:33;;;;;;;1.02;0.50;;;11.60;99.90;;;;;;5004535;28;20038;-63
2023/10/21 00:30:06;;;;;;;1.92;0.70;;;11.60;99.90;;;;;;5016467;28;20045;-64
2023/10/21 00:32:37;;;;;;;0.93;0.57;;;11.60;99.90;;;;;;5009142;28;20056;-63
2023/10/21 00:35:04;;;;;;;1.48;0.73;;;11.70;99.90;;;;;;5017846;28;20056;-63
2023/10/21 00:37:39;;;;;;;1.95;0.70;;;11.70;99.90;;;;;;5015782;28;20056;-63
2023/10/21 00:40:11;;;;;;;1.13;0.50;;;11.70;99.90;;;;;;5006183;28;20034;-63
2023/10/21 00:42:43;;;;;;;1.63;0.67;;;11.60;99.90;;;;;;4991726;28;20041;-63
2023/10/21 00:45:15;;;;;;;0.98;0.70;;;11.60;99.90;;;;;;5009295;28;20046;-63
2023/10/21 00:47:47;;;;;;;2.05;0.60;;;11.60;99.90;;;;;;5008454;28;20110;-64
2023/10/21 00:50:18;;;;;;;1.02;0.50;;;11.60;99.90;;;;;;4985765;28;20073;-63
2023/10/21 00:52:50;;;;;;;1.13;0.70;;;11.60;99.90;;;;;;5016539;28;20058;-64
2023/10/21 00:55:23;;;;;;;1.25;0.98;;;11.60;99.90;;;;;;5006558;28;20045;-63
2023/10/21 00:57:50;;;;;;;1.48;0.50;;;11.70;99.90;;;;;;4999850;28;20042;-63
2023/10/21 01:00:22;;;;;;;0.68;0.40;;;11.70;99.90;;;;;;4987670;28;20074;-64
2023/10/21 01:02:54;;;;;;;3.10;0.70;;;11.70;99.90;;;;;;5007115;28;20543;-64
2023/10/21 01:05:21;;;;;;;1.40;0.45;;;11.70;99.90;;;;;;5012264;28;20045;-63
2023/10/21 01:07:59;;;;;;;1.13;0.70;;;11.60;99.90;;;;;;5011136;28;20045;-63
2023/10/21 01:10:31;;;;;;;0.98;0.70;;;11.60;99.90;;;;;;5010384;28;20070;-63
2023/10/21 01:13:03;;;;;;;1.08;0.77;;;11.60;99.90;;;;;;4992394;28;20161;-64
2023/10/21 01:15:35;;;;;;;1.20;0.65;;;11.60;99.90;;;;;;5010250;28;20125;-63
2023/10/21 01:18:08;;;;;;;2.17;0.70;;;11.50;99.90;;;;;;5011899;28;20034;-64
2023/10/21 01:20:39;;;;;;;1.05;0.65;;;11.60;99.90;;;;;;5000898;28;20124;-63
2023/10/21 01:23:14;;;;;;;2.78;0.82;;;11.50;99.90;;;;;;5022611;28;20116;-63
2023/10/21 01:25:46;;;;;;;0.95;0.65;;;11.60;99.90;;;;;;5000163;28;20160;-64
2023/10/21 01:28:18;;;;;;;1.00;0.60;;;11.60;99.90;;;;;;5007876;28;20038;-64
2023/10/21 01:30:50;;;;;;;0.88;0.50;;;11.60;99.90;;;;;;5013788;28;20084;-63
2023/10/21 01:33:22;;;;;;;2.58;0.80;;;11.60;99.90;;;;;;5019893;28;20425;-63
2023/10/21 01:35:53;;;;;;;1.40;0.65;;;11.60;99.90;;;;;;5010817;28;20491;-63
2023/10/21 01:38:21;;;;;;;1.08;0.70;;;11.60;99.90;;;;;;5013689;28;20037;-64
2023/10/21 01:40:52;;;;;;;0.88;0.50;;;11.60;99.90;;;;;;5005710;28;20057;-63
2023/10/21 01:43:19;;;;;;;1.42;0.70;;;11.60;99.90;;;;;;5012186;28;20125;-63
2023/10/21 01:45:51;;;;;;;1.92;0.98;;;11.60;99.90;;;;;;5008084;28;20046;-64
2023/10/21 01:48:23;;;;;;;2.22;0.70;;;11.50;99.90;;;;;;5002054;28;20042;-63
2023/10/21 01:51:00;;;;;;;1.48;0.80;;;11.60;99.90;;;;;;4999479;28;20133;-63
2023/10/21 01:53:27;;;;;;;1.88;0.55;;;11.60;99.90;;;;;;5010403;28;20041;-63
2023/10/21 01:56:03;;;;;;;1.20;1.05;;;11.50;99.90;;;;;;4999576;28;20039;-63
2023/10/21 01:58:36;;;;;;;1.95;0.82;;;11.50;99.90;;;;;;5003039;28;20085;-63
2023/10/21 02:01:11;;;;;;;1.00;0.50;;;11.40;99.90;;;;;;5001507;28;20390;-64
2023/10/21 02:03:43;;;;;;;2.00;0.60;;;11.40;99.90;;;;;;5017474;28;20056;-63
2023/10/21 02:06:15;;;;;;;0.63;0.47;;;11.40;99.90;;;;;;5013858;28;20041;-63
2023/10/21 02:08:47;;;;;;;0.65;0.30;;;11.50;99.90;;;;;;5019548;28;20042;-63
2023/10/21 02:11:22;;;;;;;0.95;0.50;;;11.70;99.90;;;;;;5012594;28;20049;-64
2023/10/21 02:13:54;;;;;;;0.93;0.40;;;11.80;99.90;;;;;;5003268;28;20050;-63
2023/10/21 02:16:28;;;;;;;0.47;0.40;;;11.90;99.90;;;;;;4998297;28;20049;-63
2023/10/21 02:18:59;;;;;;;0.45;0.32;;;12.10;99.90;;;;;;5013915;28;20044;-63
2023/10/21 02:21:26;;;;;;;1.48;0.40;;;12.10;99.90;;;;;;5004908;28;20061;-63
2023/10/21 02:23:58;;;;;;;1.65;0.52;;;12.10;99.90;;;;;;5001933;28;20502;-63
2023/10/21 02:26:30;;;;;;;0.60;0.40;;;12.00;99.90;;;;;;5009220;28;20045;-63
2023/10/21 02:28:57;;;;;;;0.90;0.50;;;11.90;99.90;;;;;;5009686;28;20030;-63
2023/10/21 02:31:29;;;;;;;1.95;0.60;;;11.80;99.90;;;;;;5000864;28;20045;-63
2023/10/21 02:34:01;;;;;;;0.68;0.40;;;11.70;99.90;;;;;;5011065;28;20041;-63
2023/10/21 02:36:34;;;;;;;1.40;0.30;;;11.60;99.90;;;;;;5013391;28;20040;-64
2023/10/21 02:39:07;;;;;;;0.65;0.40;;;11.50;99.90;;;;;;5032221;28;20044;-64
2023/10/21 02:41:39;;;;;;;0.73;0.38;;;11.50;99.90;;;;;;5008863;28;20080;-63
2023/10/21 02:44:11;;;;;;;0.70;0.30;;;11.40;99.90;;;;;;5010961;28;20564;-63
2023/10/21 02:46:38;;;;;;;1.52;0.50;;;11.40;99.90;;;;;;5019299;28;20529;-63
2023/10/21 02:49:10;;;;;;;0.60;0.40;;;11.40;99.90;;;;;;4990082;28;20113;-63
2023/10/21 02:51:39;;;;;;;0.82;0.65;;;11.30;99.90;;;;;;5016048;28;20038;-63
2023/10/21 02:54:06;;;;;;;0.52;0.32;;;11.40;99.90;;;;;;5024370;28;20150;-63
2023/10/21 02:56:41;;;;;;;0.68;0.40;;;11.50;99.90;;;;;;5009275;28;20052;-63
2023/10/21 02:59:13;;;;;;;0.68;0.35;;;11.60;99.90;;;;;;5004310;28;20034;-63
2023/10/21 03:01:45;;;;;;;0.90;0.50;;;11.50;99.90;;;;;;5010840;28;20046;-63
2023/10/21 03:04:17;;;;;;;1.52;0.38;;;11.40;99.90;;;;;;5013195;28;20102;-63
2023/10/21 03:06:49;;;;;;;1.13;0.32;;;11.30;99.90;;;;;;5015739;28;20068;-63
2023/10/21 03:09:22;;;;;;;1.67;0.50;;;11.20;99.90;;;;;;5016469;28;20445;-63
2023/10/21 03:11:54;;;;;;;0.93;0.80;;;11.00;99.90;;;;;;5005418;28;20073;-63
2023/10/21 03:14:21;;;;;;;0.65;0.30;;;11.00;99.90;;;;;;5012715;28;20037;-63
2023/10/21 03:16:54;;;;;;;2.25;0.30;;;11.00;99.90;;;;;;5013495;28;20117;-63
2023/10/21 03:19:20;;;;;;;0.98;0.35;;;11.10;99.90;;;;;;5011283;28;20034;-63
2023/10/21 03:21:53;;;;;;;0.70;0.40;;;11.20;99.90;;;;;;5017920;28;20091;-63
2023/10/21 03:24:25;;;;;;;0.50;0.30;;;11.20;99.90;;;;;;5002091;28;20046;-63
2023/10/21 03:26:57;;;;;;;1.10;0.30;;;11.30;99.90;;;;;;5027811;28;20045;-63
2023/10/21 03:29:28;;;;;;;0.70;0.35;;;11.40;99.90;;;;;;5005767;28;20053;-63
2023/10/21 03:32:01;;;;;;;0.75;0.22;;;11.40;99.90;;;;;;5015197;28;20041;-63
2023/10/21 03:34:33;;;;;;;0.40;0.30;;;11.40;99.90;;;;;;5005359;28;20053;-63
2023/10/21 03:37:05;;;;;;;1.02;0.32;;;11.40;99.90;;;;;;5013543;28;20026;-63
2023/10/21 03:39:37;;;;;;;0.63;0.40;;;11.50;99.90;;;;;;5011173;28;20041;-63
2023/10/21 03:42:09;;;;;;;0.57;0.30;;;11.50;99.90;;;;;;5018089;28;20041;-63
2023/10/21 03:44:36;;;;;;;1.15;0.40;;;11.60;99.90;;;;;;5019102;28;20037;-63
2023/10/21 03:47:07;;;;;;;0.30;0.25;;;11.60;99.90;;;;;;5026934;28;20038;-63
2023/10/21 03:49:39;;;;;;;1.50;0.40;;;11.60;99.90;;;;;;5009331;28;20054;-63
2023/10/21 03:52:11;;;;;;;3.38;0.50;;;11.70;99.90;;;;;;5010124;28;20049;-65
2023/10/21 03:54:39;;;;;;;0.82;0.30;;;11.70;99.90;;;;;;5005152;28;20414;-63
2023/10/21 03:57:10;;;;;;;0.85;0.47;;;11.80;99.90;;;;;;5010091;28;20038;-63
2023/10/21 03:59:42;;;;;;;1.10;0.30;;;11.90;99.90;;;;;;5000810;28;20046;-63
2023/10/21 04:02:14;;;;;;;0.63;0.40;;;12.00;99.90;;;;;;5005504;28;20119;-63
2023/10/21 04:04:46;;;;;;;0.80;0.35;;;12.00;99.90;;;;;;5004744;28;20132;-63
2023/10/21 04:07:18;;;;;;;0.57;0.30;;;12.00;99.90;;;;;;5016045;28;20038;-63
2023/10/21 04:09:49;;;;;;;0.50;0.40;;;12.00;99.90;;;;;;5010447;28;20048;-63
2023/10/21 04:12:16;;;;;;;1.45;0.50;;;11.90;99.90;;;;;;5011198;28;20040;-63
2023/10/21 04:14:48;;;;;;;0.70;0.50;;;11.80;99.90;;;;;;5011305;28;20544;-63
2023/10/21 04:17:21;;;;;;;1.23;0.40;;;11.80;99.90;;;;;;5010683;28;20034;-63
2023/10/21 04:19:52;;;;;;;1.23;0.60;;;11.70;99.90;;;;;;5016597;28;20095;-63
2023/10/21 04:22:20;;;;;;;1.55;0.30;;;11.60;99.90;;;;;;5008169;28;20087;-64
2023/10/21 04:24:52;;;;;;;0.88;0.50;;;11.60;99.90;;;;;;5009703;28;20053;-64
2023/10/21 04:27:24;;;;;;;1.70;0.50;;;11.50;99.90;;;;;;5006010;28;20554;-63
2023/10/21 04:29:56;;;;;;;1.50;0.80;;;11.50;99.90;;;;;;5002445;28;20038;-63
2023/10/21 04:32:27;;;;;;;3.47;0.50;;;11.50;99.90;;;;;;5006801;28;20132;-63
2023/10/21 04:35:00;;;;;;;1.45;0.63;;;11.50;99.90;;;;;;5001906;28;20038;-63
2023/10/21 04:37:32;;;;;;;0.70;0.50;;;11.50;99.90;;;;;;5011181;28;20029;-63
2023/10/21 04:40:05;;;;;;;0.70;0.50;;;11.50;99.90;;;;;;5011079;28;20067;-63
2023/10/21 04:42:32;;;;;;;1.23;0.68;;;11.50;99.90;;;;;;5017683;28;20108;-64
2023/10/21 04:45:07;;;;;;;1.33;0.60;;;11.50;99.90;;;;;;5013589;28;20247;-63
2023/10/21 04:47:39;;;;;;;2.15;0.70;;;11.50;99.90;;;;;;5007762;28;20080;-63
2023/10/21 04:50:06;;;;;;;1.20;0.60;;;11.50;99.90;;;;;;5013984;28;20064;-63
2023/10/21 04:52:38;;;;;;;0.85;0.40;;;11.40;99.90;;;;;;5003804;28;20542;-63
2023/10/21 04:55:10;;;;;;;0.90;0.50;;;11.30;99.90;;;;;;5036383;28;20133;-63
2023/10/21 04:57:42;;;;;;;1.17;0.50;;;11.30;99.90;;;;;;5002013;28;20050;-64
2023/10/21 05:00:14;;;;;;;0.90;0.50;;;11.20;99.90;;;;;;5004509;28;20046;-63
2023/10/21 05:02:46;;;;;;;0.77;0.50;;;11.30;99.90;;;;;;5000048;28;20511;-74
2023/10/21 05:05:18;;;;;;;0.75;0.40;;;11.30;99.90;;;;;;5010022;28;20105;-64
2023/10/21 05:07:50;;;;;;;1.15;0.55;;;11.20;99.90;;;;;;5008076;28;20041;-64
2023/10/21 05:10:22;;;;;;;1.95;0.60;;;11.20;99.90;;;;;;5011350;28;20055;-63
2023/10/21 05:12:48;;;;;;;1.60;0.80;;;11.20;99.90;;;;;;5015448;28;20061;-63
2023/10/21 05:15:20;;;;;;;1.92;1.15;;;11.20;99.90;;;;;;5015060;28;20041;-63
2023/10/21 05:17:47;;;;;;;2.78;0.80;;;11.20;99.90;;;;;;5012529;28;20272;-64
2023/10/21 05:20:19;;;;;;;0.80;0.60;;;11.20;99.90;;;;;;5026438;28;20042;-64
2023/10/21 05:22:51;;;;;;;1.00;0.52;;;11.20;99.90;;;;;;5010039;28;20649;-64
2023/10/21 05:25:23;;;;;;;1.33;0.50;;;11.20;99.90;;;;;;5013539;28;20038;-64
2023/10/21 05:27:54;;;;;;;0.90;0.55;;;11.30;99.90;;;;;;5002517;28;20046;-63
2023/10/21 05:30:26;;;;;;;1.00;0.60;;;11.30;99.90;;;;;;5011729;28;20056;-64
2023/10/21 05:32:58;;;;;;;0.85;0.50;;;11.40;99.90;;;;;;5000161;28;20053;-67
2023/10/21 05:35:30;;;;;;;1.15;0.52;;;11.50;99.90;;;;;;5007051;28;20048;-65
2023/10/21 05:37:57;;;;;;;2.72;0.50;;;11.60;99.90;;;;;;5013866;28;20498;-64
2023/10/21 05:40:29;;;;;;;1.20;0.70;;;11.60;99.90;;;;;;5010059;28;20505;-64
2023/10/21 05:43:01;;;;;;;0.70;0.40;;;11.70;99.90;;;;;;4999795;28;20453;-68
2023/10/21 05:45:34;;;;;;;0.80;0.37;;;11.80;99.90;;;;;;5015630;28;20072;-65
2023/10/21 05:48:06;;;;;;;1.10;0.57;;;11.90;99.90;;;;;;5014450;28;20058;-64
2023/10/21 05:50:33;;;;;;;1.67;0.47;;;12.00;99.90;;;;;;5015951;28;20037;-64
2023/10/21 05:53:05;;;;;;;0.40;0.30;;;12.00;99.90;;;;;;5023380;28;20046;-65
2023/10/21 05:55:32;;;;;;;1.70;0.40;;;12.10;99.90;;;;;;5009391;28;20038;-64
2023/10/21 05:57:59;;;;;;;0.98;0.47;;;12.10;99.90;;;;;;5013816;28;20124;-63
2023/10/21 06:00:31;;;;;;;8.45;0.57;;;12.10;99.90;;;;;;5013394;28;20033;-64
2023/10/21 06:03:06;;;;;;;0.95;0.40;;;12.10;99.90;;;;;;5006988;28;20522;-64
2023/10/21 06:05:33;;;;;;;0.85;0.50;;;12.20;99.90;;;;;;5005778;28;20580;-64
2023/10/21 06:08:07;;;;;;;0.63;0.47;;;12.20;99.90;;;;;;5005750;28;20051;-66
2023/10/21 06:10:39;;;;;;;;;;;12.20;99.90;;;;;;5015501;28;20056;-64
2023/10/21 06:13:11;;;;;;;0.40;0.30;;;12.20;99.90;;;;;;5017323;28;19921;-64
2023/10/21 06:15:43;;;;;;;1.63;0.50;;;12.30;99.90;;;;;;5020346;28;20065;-65
2023/10/21 06:18:15;;;;;;;0.63;0.50;;;12.30;99.90;;;;;;5016282;28;20034;-63
2023/10/21 06:20:51;;;;;;;0.82;0.50;;;12.30;99.90;;;;;;5008979;28;20056;-64
2023/10/21 06:23:23;;;;;;;1.27;0.50;;;12.30;99.90;;;;;;5028287;28;20038;-64
2023/10/21 06:25:55;;;;;;;2.20;0.50;;;12.30;99.90;;;;;;5012984;28;20042;-64
2023/10/21 06:28:28;;;;;;;0.57;0.40;;;12.20;99.90;;;;;;5016394;28;20054;-64
2023/10/21 06:30:55;;;;;;;0.57;0.40;;;12.20;99.90;;;;;;5009308;28;20115;-64
2023/10/21 06:33:22;;;;;;;0.57;0.38;;;12.20;99.90;;;;;;5008778;28;20033;-64
2023/10/21 06:35:49;;;;;;;1.02;0.40;;;12.20;99.90;;;;;;5005772;28;20125;-64
2023/10/21 06:38:21;;;;;;;0.50;0.40;;;12.20;99.90;;;;;;5002646;28;20046;-64
2023/10/21 06:40:53;;;;;;;1.52;1.17;;;12.20;99.90;;;;;;5011731;28;20502;-64
2023/10/21 06:43:24;;;;;;;1.10;0.50;;;12.30;99.90;;;;;;5011673;28;20038;-64
2023/10/21 06:45:52;;;;;;;0.47;0.40;;;12.30;99.90;;;;;;5016768;28;20153;-64
2023/10/21 06:48:24;;;;;;;1.58;0.40;;;12.40;99.90;;;;;;5011629;28;20044;-64
2023/10/21 06:50:56;;;;;;;1.67;1.27;;;12.40;99.90;;;;;;5013219;28;20045;-64
2023/10/21 06:53:28;;;;;;;4.18;3.83;;;12.50;99.90;;;;;;5012681;28;20046;-64
2023/10/21 06:56:00;;;;;;;2.50;0.40;;;12.60;99.90;;;;;;5010948;28;20046;-64
2023/10/21 06:58:32;;;;;;;0.55;0.30;;;12.60;99.90;;;;;;5019370;28;20041;-64
2023/10/21 07:01:03;;;;;;;0.70;0.40;;;12.70;99.90;;;;;;5011910;28;20040;-64
2023/10/21 07:03:30;;;;;;;0.32;0.30;;;12.70;99.90;;;;;;5018022;28;20459;-64
2023/10/21 07:05:58;;;;;;;1.67;0.40;;;12.60;99.90;;;;;;4983208;28;20048;-64
2023/10/21 07:08:30;;;;;;;1.60;0.50;;;12.70;99.90;;;;;;5011268;28;20048;-64
2023/10/21 07:11:02;;;;;;;1.13;0.60;;;12.70;99.90;;;;;;5008075;28;20054;-64
2023/10/21 07:13:29;;;;;;;1.02;0.50;;;12.80;99.90;;;;;;5013816;28;20069;-64
2023/10/21 07:16:10;;;;;;;1.35;0.40;;;12.90;99.90;;;;;;5013576;28;20107;-64
2023/10/21 07:18:41;;;;;;;2.35;0.40;;;12.90;99.90;;;;;;5014540;28;20033;-64
2023/10/21 07:21:09;;;;;;;1.77;0.40;;;12.90;99.90;;;;;;5015787;28;20042;-64
2023/10/21 07:23:41;;;;;;;0.63;0.30;;;13.00;99.90;;;;;;5026006;28;20109;-64
2023/10/21 07:26:08;;;;;;;0.82;0.20;;;13.00;99.90;;;;;;5012943;28;20149;-64
2023/10/21 07:28:40;;;;;;;0.45;0.30;;;13.00;99.90;;;;;;5015355;28;20116;-64
2023/10/21 07:31:12;;;;;;;0.98;0.35;;;13.10;99.90;;;;;;5008298;28;20120;-64
2023/10/21 07:33:44;;;;;;;0.35;0.30;;;13.10;99.90;;;;;;5010841;28;20061;-64
2023/10/21 07:36:16;;;;;;;1.27;0.30;;;13.20;99.90;;;;;;4999656;28;20429;-64
2023/10/21 07:38:43;;;;;;;0.30;0.30;;;13.30;99.90;;;;;;5003205;28;20070;-64
2023/10/21 07:41:11;;;;;;;1.80;1.67;;;13.30;99.90;;;;;;5004018;28;20050;-64
2023/10/21 07:43:43;;;;;;;1.05;0.50;;;13.30;99.90;;;;;;5012341;28;20061;-64
2023/10/21 07:46:15;;;;;;;0.52;0.30;;;13.30;99.90;;;;;;5008549;28;20049;-64
2023/10/21 07:48:47;;;;;;;0.30;0.20;;;13.40;99.90;;;;;;5016609;28;20049;-64
2023/10/21 07:51:14;;;;;;;0.70;0.40;;;13.40;99.90;;;;;;5013143;28;20038;-64
2023/10/21 07:53:45;;;;;;;1.17;0.32;;;13.50;99.90;;;;;;5013865;28;20047;-64
2023/10/21 07:56:12;;;;;;;0.57;0.30;;;13.50;99.90;;;;;;5015734;28;20040;-64
2023/10/21 07:58:44;;;;;;;0.65;0.30;;;13.60;99.90;;;;;;5011787;28;20054;-64
2023/10/21 08:01:11;;;;;;;0.98;0.30;;;13.70;99.90;;;;;;5015070;28;20042;-64
2023/10/21 08:03:44;;;;;;;0.75;0.30;;;13.80;99.90;;;;;;5011067;28;20045;-64
2023/10/21 08:06:16;;;;;;;1.67;0.38;;;14.00;99.90;;;;;;4995992;28;20053;-64
2023/10/21 08:08:43;;;;;;;0.63;0.30;;;14.10;99.90;;;;;;5005345;28;20141;-64
2023/10/21 08:11:14;;;;;;;0.80;0.20;;;14.10;99.90;;;;;;5002174;28;20045;-64
2023/10/21 08:13:47;;;;;;;1.95;0.20;;;14.10;99.90;;;;;;5015209;28;20525;-64
2023/10/21 08:16:15;;;;;;;0.30;0.30;;;14.00;99.90;;;;;;5004811;28;20030;-64
2023/10/21 08:18:41;;;;;;;0.30;0.30;;;14.00;99.90;;;;;;5017837;28;20045;-64
2023/10/21 08:21:13;;;;;;;0.25;0.20;;;14.00;99.90;;;;;;5016470;28;20133;-64
2023/10/21 08:23:45;;;;;;;0.80;0.20;;;14.00;99.90;;;;;;5014628;28;20037;-64
2023/10/21 08:26:17;;;;;;;0.70;0.20;;;14.10;99.90;;;;;;5016445;28;20223;-64
2023/10/21 08:28:49;;;;;;;1.20;0.20;;;14.30;99.90;;;;;;5011740;28;20442;-64
2023/10/21 08:31:22;;;;;;;0.85;0.20;;;14.30;99.90;;;;;;5016179;28;20046;-64
2023/10/21 08:33:54;;;;;;;1.10;0.30;;;14.50;99.90;;;;;;5003926;28;20061;-64
2023/10/21 08:36:22;;;;;;;1.23;0.35;;;14.50;99.90;;;;;;5014419;28;20310;-64
2023/10/21 08:38:54;;;;;;;0.85;0.30;;;14.50;99.90;;;;;;5000564;28;20539;-64
2023/10/21 08:41:34;;;;;;;0.40;0.20;;;14.50;99.90;;;;;;5010249;28;20068;-64
2023/10/21 08:44:07;;;;;;;0.95;0.40;;;14.50;99.90;;;;;;5002799;28;20045;-64
2023/10/21 08:46:41;;;;;;;0.77;0.30;;;14.50;99.90;;;;;;5010053;28;20046;-64
2023/10/21 08:49:14;;;;;;;;;;;14.50;99.90;;;;;;5016374;28;20042;-64
2023/10/21 08:51:47;;;;;;;0.98;0.30;;;14.50;99.90;;;;;;5020799;28;19922;-64
2023/10/21 08:54:20;;;;;;;0.30;0.25;;;14.50;99.90;;;;;;5014679;28;20137;-64
2023/10/21 08:56:52;;;;;;;0.80;0.20;;;14.50;99.90;;;;;;5009910;28;20060;-64
2023/10/21 08:59:24;;;;;;;0.20;0.20;;;14.50;99.90;;;;;;5017557;28;20050;-64
2023/10/21 09:01:56;;;;;;;1.50;0.40;;;14.50;99.90;;;;;;5014768;28;20554;-64
2023/10/21 09:04:23;;;;;;;0.57;0.10;;;14.60;99.90;;;;;;5005712;28;20862;-64
2023/10/21 09:06:58;;;;;;;0.95;0.30;;;14.60;99.90;;;;;;5009724;28;20514;-64
2023/10/21 09:09:30;;;;;;;0.20;0.10;;;14.60;99.90;;;;;;4999693;28;20053;-64
2023/10/21 09:12:10;;;;;;;0.68;0.20;;;14.60;99.90;;;;;;5010990;28;20431;-64
2023/10/21 09:14:59;;;;;;;0.20;0.20;;;14.80;99.90;;;;;;5005384;28;20049;-64
2023/10/21 09:17:36;;;;;;;0.32;0.20;;;14.80;99.90;;;;;;5013680;28;20569;-64
2023/10/21 09:20:11;;;;;;;1.17;0.20;;;14.90;99.90;;;;;;5005140;28;20117;-64
2023/10/21 09:22:45;;;;;;;3.63;0.30;;;14.90;99.90;;;;;;5015024;28;20047;-64
2023/10/21 09:25:19;;;;;;;1.40;0.57;;;15.00;99.90;;;;;;5013232;28;20045;-64
2023/10/21 09:27:54;;;;;;;0.40;0.20;;;15.10;99.90;;;;;;5010384;28;20061;-64
2023/10/21 09:30:29;;;;;;;0.28;0.20;;;15.20;99.90;;;;;;5005350;28;20057;-64
2023/10/21 09:33:05;;;;;;;0.68;0.20;;;15.30;99.90;;;;;;5010778;28;20587;-64
2023/10/21 09:35:37;;;;;;;0.75;0.60;;;15.30;99.90;;;;;;5008721;28;20138;-64
2023/10/21 09:38:17;;;;;;;0.30;0.20;;;15.20;99.90;;;;;;5004804;28;20045;-64
2023/10/21 09:40:49;;;;;;;0.50;0.20;;;15.10;99.90;;;;;;5002489;28;20058;-64
2023/10/21 09:43:22;;;;;;;1.27;0.35;;;15.20;99.90;;;;;;5006026;28;20545;-64
2023/10/21 09:45:57;;;;;;;2.13;0.32;;;15.10;99.90;;;;;;5008867;28;20045;-64
2023/10/21 09:48:26;;;;;;;0.93;0.20;;;15.10;99.90;;;;;;5010538;28;20042;-64
2023/10/21 09:51:00;;;;;;;0.22;0.22;;;15.00;99.90;;;;;;5014169;28;20133;-64
2023/10/21 09:53:45;;;;;;;5.57;1.40;;;15.00;99.90;;;;;;5004088;28;20041;-64
2023/10/21 09:56:18;;;;;;;0.90;0.30;;;15.00;99.90;;;;;;5013893;28;20046;-64
2023/10/21 09:58:46;;;;;;;0.52;0.30;;;15.00;99.90;;;;;;5015713;28;20046;-64
2023/10/21 10:01:23;;;;;;;0.38;0.30;;;14.90;99.90;;;;;;5009773;28;20046;-64
2023/10/21 10:03:56;;;;;;;0.45;0.30;;;14.90;99.90;;;;;;5004332;28;20128;-64
2023/10/21 10:06:29;;;;;;;3.10;0.40;;;14.80;99.90;;;;;;5010618;28;20076;-64
2023/10/21 10:09:06;;;;;;;0.13;0.10;;;14.70;99.90;;;;;;5004561;28;20042;-64
2023/10/21 10:11:39;;;;;;;0.28;0.20;;;14.70;99.90;;;;;;5000370;28;20114;-64
2023/10/21 10:14:11;;;;;;;1.15;0.40;;;14.60;99.90;;;;;;5002021;28;20053;-64
2023/10/21 10:16:44;;;;;;;0.50;0.20;;;14.60;99.90;;;;;;5006916;28;20050;-64
2023/10/21 10:19:42;;;;;;;0.45;0.20;;;14.60;99.90;;;;;;5008860;28;20466;-64
2023/10/21 10:22:30;;;;;;;0.73;0.35;;;14.50;99.90;;;;;;5013077;28;20132;-64
2023/10/21 10:25:10;;;;;;;0.43;0.30;;;14.40;99.90;;;;;;5015470;28;20054;-64
2023/10/21 10:27:41;;;;;;;0.68;0.38;;;14.40;99.90;;;;;;5015426;28;20501;-64
2023/10/21 10:30:22;;;;;;;0.70;0.28;;;14.30;99.90;;;;;;5012075;28;20056;-64
2023/10/21 10:32:55;;;;;;;0.20;0.20;;;14.30;99.90;;;;;;5011590;28;20413;-64
2023/10/21 10:35:37;;;;;;;1.27;0.30;;;14.30;99.90;;;;;;5016519;28;20544;-64
2023/10/21 10:38:17;;;;;;;0.75;0.20;;;14.20;99.90;;;;;;5000887;28;20052;-64
2023/10/21 10:40:44;;;;;;;3.70;0.30;;;14.20;99.90;;;;;;5012504;28;20077;-64
2023/10/21 10:43:11;;;;;;;0.32;0.20;;;14.20;99.90;;;;;;5004746;28;20053;-64
2023/10/21 10:45:43;;;;;;;0.60;0.40;;;14.20;99.90;;;;;;5009182;28;20524;-65
2023/10/21 10:48:11;;;;;;;0.17;0.17;;;14.30;99.90;;;;;;5006774;28;20505;-64
2023/10/21 10:50:43;;;;;;;0.20;0.20;;;14.40;99.90;;;;;;5020436;28;20124;-64
2023/10/21 10:53:22;;;;;;;0.38;0.20;;;14.40;99.90;;;;;;5008408;28;20042;-64
2023/10/21 10:55:54;;;;;;;0.20;0.20;;;14.50;99.90;;;;;;5016452;28;20061;-64
2023/10/21 10:58:22;;;;;;;0.38;0.20;;;14.60;99.90;;;;;;5018945;28;20070;-64
2023/10/21 11:00:51;;;;;;;0.38;0.17;;;14.60;99.90;;;;;;5012849;28;20124;-64
2023/10/21 11:03:28;;;;;;;0.70;0.20;;;14.60;99.90;;;;;;5010085;28;20038;-63
2023/10/21 11:06:00;;;;;;;1.27;0.40;;;14.70;99.90;;;;;;5028515;28;20049;-64
2023/10/21 11:08:32;;;;;;;0.68;0.20;;;14.80;99.90;;;;;;5015048;28;20138;-65
2023/10/21 11:11:05;;;;;;;1.30;0.20;;;14.80;99.90;;;;;;5009101;28;20037;-63
2023/10/21 11:13:37;;;;;;;0.65;0.20;;;14.80;99.90;;;;;;4996240;28;20069;-64
2023/10/21 11:16:11;;;;;;;1.13;0.30;;;14.90;99.90;;;;;;5005632;28;20036;-64
2023/10/21 11:18:43;;;;;;;0.85;0.35;;;14.90;99.90;;;;;;5007518;28;20038;-64
2023/10/21 11:21:10;;;;;;;0.65;0.30;;;14.90;99.90;;;;;;5012252;28;20043;-64
2023/10/21 11:23:42;;;;;;;1.75;0.40;;;14.90;99.90;;;;;;5003371;28;20050;-64
2023/10/21 11:26:09;;;;;;;0.57;0.30;;;15.00;99.90;;;;;;5014344;28;20037;-64
2023/10/21 11:28:41;;;;;;;1.38;0.20;;;15.00;99.90;;;;;;5013281;28;20049;-64
2023/10/21 11:31:09;;;;;;;0.30;0.22;;;15.00;99.90;;;;;;5013140;28;20046;-64
2023/10/21 11:33:40;;;;;;;2.10;0.30;;;15.10;99.90;;;;;;5017444;28;20593;-64
2023/10/21 11:36:12;;;;;;;0.20;0.20;;;15.00;99.90;;;;;;5001272;28;20301;-64
2023/10/21 11:38:44;;;;;;;0.35;0.20;;;15.00;99.90;;;;;;5016996;28;20055;-64
2023/10/21 11:41:16;;;;;;;1.08;0.25;;;15.00;99.90;;;;;;4992168;28;20039;-64
2023/10/21 11:43:47;;;;;;;1.05;0.30;;;14.90;99.90;;;;;;5007781;28;20125;-64
2023/10/21 11:46:20;;;;;;;2.15;0.68;;;14.90;99.90;;;;;;5006728;28;20776;-64
2023/10/21 11:48:52;;;;;;;1.27;0.43;;;14.90;99.90;;;;;;5010609;28;20038;-63
2023/10/21 11:51:28;;;;;;;2.83;0.30;;;14.90;99.90;;;;;;4996927;28;20038;-64
2023/10/21 11:54:01;;;;;;;0.38;0.28;;;15.00;99.90;;;;;;5013241;28;20048;-64
2023/10/21 12:13:37;;;;;;;0.25;0.20;;;15.20;99.90;;;;;;5010219;28;20061;-64
2023/10/21 12:38:21;;;;;;;1.00;0.30;;;15.20;99.90;;;;;;5014499;28;20046;-64
2023/10/21 12:41:07;;;;;;;4.15;1.15;;;15.20;99.90;;;;;;5002397;28;20053;-63
2023/10/21 12:43:36;;;;;;;0.32;0.30;;;15.30;99.90;;;;;;5013839;28;20037;-64
2023/10/21 12:46:25;;;;;;;0.68;0.25;;;15.40;99.90;;;;;;4996964;28;20042;-64
2023/10/21 12:48:52;;;;;;;0.50;0.30;;;15.40;99.90;;;;;;5004092;28;20048;-64
2023/10/21 12:51:24;;;;;;;1.55;0.40;;;15.40;99.90;;;;;;4998835;28;20048;-64
2023/10/21 12:53:56;;;;;;;1.85;0.30;;;15.30;99.90;;;;;;5013363;28;20059;-64
2023/10/21 12:56:28;;;;;;;2.33;0.40;;;15.40;99.90;;;;;;5006483;28;20049;-64
2023/10/21 12:58:59;;;;;;;1.38;0.20;;;15.40;99.90;;;;;;5014857;28;20052;-64
2023/10/21 13:01:31;;;;;;;1.40;0.40;;;15.30;99.90;;;;;;5009582;28;20056;-64
2023/10/21 13:04:04;;;;;;;0.45;0.40;;;15.20;99.90;;;;;;5011382;28;20035;-64
2023/10/21 13:06:36;;;;;;;0.43;0.30;;;15.20;99.90;;;;;;5017678;28;20042;-64
2023/10/21 13:09:23;;;;;;;0.63;0.25;;;15.20;99.90;;;;;;5011869;28;20058;-64
2023/10/21 13:11:55;;;;;;;1.15;0.30;;;15.10;99.90;;;;;;5011635;28;20050;-64
2023/10/21 13:14:23;;;;;;;1.05;0.40;;;15.10;99.90;;;;;;5008169;28;20697;-64
2023/10/21 13:16:55;;;;;;;0.77;0.40;;;15.10;99.90;;;;;;5008664;28;20057;-63
2023/10/21 13:19:29;;;;;;;1.30;0.30;;;15.10;99.90;;;;;;5006304;28;20620;-64
2023/10/21 13:22:01;;;;;;;1.23;0.30;;;15.00;99.90;;;;;;5007079;28;20049;-63
2023/10/21 13:24:34;;;;;;;0.65;0.40;;;15.00;99.90;;;;;;5010626;28;20046;-64
2023/10/21 13:27:07;;;;;;;1.38;0.40;;;15.00;99.90;;;;;;5007476;28;20051;-64
2023/10/21 13:29:39;;;;;;;1.50;0.68;;;14.90;99.90;;;;;;5016821;28;20069;-64
2023/10/21 13:32:11;;;;;;;4.43;1.95;;;14.90;99.90;;;;;;5017238;28;20132;-64
2023/10/21 13:34:43;;;;;;;4.63;2.45;;;14.80;99.90;;;;;;5013555;28;20125;-64
2023/10/21 13:37:19;;;;;;;1.03;0.40;;;14.80;99.90;;;;;;5012763;28;20156;-64
2023/10/21 13:39:47;;;;;;;0.68;0.47;;;14.80;99.90;;;;;;5007696;28;20421;-64
2023/10/21 13:42:19;;;;;;;1.58;0.57;;;14.70;99.90;;;;;;5008907;28;20125;-64
2023/10/21 13:44:51;;;;;;;0.40;0.30;;;14.70;99.90;;;;;;5004764;28;20413;-64
2023/10/21 13:47:22;;;;;;;0.63;0.40;;;14.60;99.90;;;;;;5007123;28;20066;-64
2023/10/21 13:49:49;;;;;;;0.50;0.40;;;14.60;99.90;;;;;;5002088;28;20160;-64
2023/10/21 13:52:21;;;;;;;1.15;0.50;;;14.60;99.90;;;;;;5012470;28;20050;-64